sensor_id;sensor_type;location;lat;lon;timestamp;P1;durP1;ratioP1;P2;durP2;ratioP2
29934;SDS011;19905;53.370;-6.314;2022-11-20T00:01:47;18.30;;;3.78;;
29934;SDS011;19905;53.370;-6.314;2022-11-20T00:04:15;18.70;;;3.72;;
29934;SDS011;19905;53.370;-6.314;2022-11-20T00:06:44;19.73;;;3.75;;
29934;SDS011;19905;53.370;-6.314;2022-11-20T00:09:12;13.45;;;2.88;;
29934;SDS011;19905;53.370;-6.314;2022-11-20T00:11:42;20.48;;;4.20;;
29934;SDS011;19905;53.370;-6.314;2022-11-20T00:14:11;21.52;;;4.60;;
29934;SDS011;19905;53.370;-6.314;2022-11-20T00:16:39;13.88;;;4.00;;
29934;SDS011;19905;53.370;-6.314;2022-11-20T00:19:09;18.83;;;4.38;;
29934;SDS011;19905;53.370;-6.314;2022-11-20T00:21:38;20.95;;;4.93;;
29934;SDS011;19905;53.370;-6.314;2022-11-20T00:24:08;29.35;;;5.18;;
29934;SDS011;19905;53.370;-6.314;2022-11-20T00:26:37;18.30;;;3.97;;
29934;SDS011;19905;53.370;-6.314;2022-11-20T00:29:08;22.60;;;4.60;;
29934;SDS011;19905;53.370;-6.314;2022-11-20T00:31:37;17.58;;;4.88;;
29934;SDS011;19905;53.370;-6.314;2022-11-20T00:34:06;26.05;;;5.32;;
29934;SDS011;19905;53.370;-6.314;2022-11-20T00:36:34;20.60;;;4.43;;
29934;SDS011;19905;53.370;-6.314;2022-11-20T00:39:03;24.38;;;4.97;;
29934;SDS011;19905;53.370;-6.314;2022-11-20T00:41:31;18.80;;;4.78;;
29934;SDS011;19905;53.370;-6.314;2022-11-20T00:44:00;23.42;;;4.88;;
29934;SDS011;19905;53.370;-6.314;2022-11-20T00:46:30;28.25;;;4.15;;
29934;SDS011;19905;53.370;-6.314;2022-11-20T00:48:59;22.83;;;4.70;;
29934;SDS011;19905;53.370;-6.314;2022-11-20T00:51:27;23.40;;;4.07;;
29934;SDS011;19905;53.370;-6.314;2022-11-20T00:53:56;29.13;;;4.97;;
29934;SDS011;19905;53.370;-6.314;2022-11-20T00:56:26;29.00;;;4.57;;
29934;SDS011;19905;53.370;-6.314;2022-11-20T00:58:55;26.70;;;5.03;;
29934;SDS011;19905;53.370;-6.314;2022-11-20T01:01:29;24.95;;;4.82;;
29934;SDS011;19905;53.370;-6.314;2022-11-20T01:03:58;32.92;;;6.28;;
29934;SDS011;19905;53.370;-6.314;2022-11-20T01:06:29;31.77;;;4.95;;
29934;SDS011;19905;53.370;-6.314;2022-11-20T01:09:00;26.83;;;4.20;;
29934;SDS011;19905;53.370;-6.314;2022-11-20T01:11:31;21.02;;;4.80;;
29934;SDS011;19905;53.370;-6.314;2022-11-20T01:14:02;26.08;;;4.63;;
29934;SDS011;19905;53.370;-6.314;2022-11-20T01:16:34;28.52;;;4.93;;
29934;SDS011;19905;53.370;-6.314;2022-11-20T01:19:05;30.30;;;4.50;;
29934;SDS011;19905;53.370;-6.314;2022-11-20T01:21:36;27.15;;;4.40;;
29934;SDS011;19905;53.370;-6.314;2022-11-20T01:24:06;28.15;;;4.47;;
29934;SDS011;19905;53.370;-6.314;2022-11-20T01:26:39;26.23;;;4.63;;
29934;SDS011;19905;53.370;-6.314;2022-11-20T01:29:09;29.50;;;5.03;;
29934;SDS011;19905;53.370;-6.314;2022-11-20T01:31:43;29.98;;;5.05;;
29934;SDS011;19905;53.370;-6.314;2022-11-20T01:34:13;41.58;;;5.82;;
29934;SDS011;19905;53.370;-6.314;2022-11-20T01:36:44;32.88;;;5.30;;
29934;SDS011;19905;53.370;-6.314;2022-11-20T01:39:14;32.10;;;5.07;;
29934;SDS011;19905;53.370;-6.314;2022-11-20T01:41:45;41.75;;;4.57;;
29934;SDS011;19905;53.370;-6.314;2022-11-20T01:47:31;36.40;;;6.18;;
29934;SDS011;19905;53.370;-6.314;2022-11-20T01:50:09;43.28;;;5.57;;
29934;SDS011;19905;53.370;-6.314;2022-11-20T01:52:42;33.13;;;5.65;;
29934;SDS011;19905;53.370;-6.314;2022-11-20T01:55:19;32.90;;;5.95;;
29934;SDS011;19905;53.370;-6.314;2022-11-20T01:57:50;36.30;;;4.88;;
29934;SDS011;19905;53.370;-6.314;2022-11-20T02:00:20;32.22;;;5.10;;
29934;SDS011;19905;53.370;-6.314;2022-11-20T02:02:51;46.78;;;5.47;;
29934;SDS011;19905;53.370;-6.314;2022-11-20T02:05:29;38.50;;;5.70;;
29934;SDS011;19905;53.370;-6.314;2022-11-20T02:08:04;44.58;;;5.80;;
29934;SDS011;19905;53.370;-6.314;2022-11-20T02:10:34;40.15;;;6.43;;
29934;SDS011;19905;53.370;-6.314;2022-11-20T02:13:03;40.03;;;5.30;;
29934;SDS011;19905;53.370;-6.314;2022-11-20T02:15:49;41.42;;;5.43;;
29934;SDS011;19905;53.370;-6.314;2022-11-20T02:18:20;34.30;;;5.68;;
29934;SDS011;19905;53.370;-6.314;2022-11-20T02:20:53;43.30;;;6.57;;
29934;SDS011;19905;53.370;-6.314;2022-11-20T02:23:28;39.47;;;5.20;;
29934;SDS011;19905;53.370;-6.314;2022-11-20T02:26:06;39.58;;;5.45;;
29934;SDS011;19905;53.370;-6.314;2022-11-20T02:28:39;42.42;;;5.72;;
29934;SDS011;19905;53.370;-6.314;2022-11-20T02:31:08;29.67;;;5.35;;
29934;SDS011;19905;53.370;-6.314;2022-11-20T02:33:37;35.25;;;4.88;;
29934;SDS011;19905;53.370;-6.314;2022-11-20T02:36:07;41.47;;;5.47;;
29934;SDS011;19905;53.370;-6.314;2022-11-20T02:38:39;42.95;;;5.15;;
29934;SDS011;19905;53.370;-6.314;2022-11-20T02:41:10;34.38;;;5.05;;
29934;SDS011;19905;53.370;-6.314;2022-11-20T02:43:39;35.88;;;5.40;;
29934;SDS011;19905;53.370;-6.314;2022-11-20T02:46:08;37.58;;;5.07;;
29934;SDS011;19905;53.370;-6.314;2022-11-20T02:48:37;37.22;;;5.30;;
29934;SDS011;19905;53.370;-6.314;2022-11-20T02:51:05;41.42;;;6.05;;
29934;SDS011;19905;53.370;-6.314;2022-11-20T02:53:34;43.67;;;6.00;;
29934;SDS011;19905;53.370;-6.314;2022-11-20T02:56:02;40.60;;;5.28;;
29934;SDS011;19905;53.370;-6.314;2022-11-20T02:58:34;43.20;;;5.47;;
29934;SDS011;19905;53.370;-6.314;2022-11-20T03:01:03;39.33;;;5.20;;
29934;SDS011;19905;53.370;-6.314;2022-11-20T03:03:33;30.92;;;5.10;;
29934;SDS011;19905;53.370;-6.314;2022-11-20T03:06:02;36.63;;;5.15;;
29934;SDS011;19905;53.370;-6.314;2022-11-20T03:08:31;42.65;;;4.55;;
29934;SDS011;19905;53.370;-6.314;2022-11-20T03:11:02;33.67;;;5.40;;
29934;SDS011;19905;53.370;-6.314;2022-11-20T03:13:34;32.17;;;5.03;;
29934;SDS011;19905;53.370;-6.314;2022-11-20T03:16:07;25.70;;;4.47;;
29934;SDS011;19905;53.370;-6.314;2022-11-20T03:18:37;25.38;;;4.20;;
29934;SDS011;19905;53.370;-6.314;2022-11-20T03:21:06;29.45;;;5.00;;
29934;SDS011;19905;53.370;-6.314;2022-11-20T03:23:35;26.60;;;4.47;;
29934;SDS011;19905;53.370;-6.314;2022-11-20T03:26:12;34.42;;;5.30;;
29934;SDS011;19905;53.370;-6.314;2022-11-20T03:28:45;29.65;;;4.32;;
29934;SDS011;19905;53.370;-6.314;2022-11-20T03:31:16;26.10;;;4.38;;
29934;SDS011;19905;53.370;-6.314;2022-11-20T03:33:46;23.88;;;4.47;;
29934;SDS011;19905;53.370;-6.314;2022-11-20T03:36:16;22.05;;;3.60;;
29934;SDS011;19905;53.370;-6.314;2022-11-20T03:38:46;28.65;;;4.00;;
29934;SDS011;19905;53.370;-6.314;2022-11-20T03:41:16;17.70;;;3.67;;
29934;SDS011;19905;53.370;-6.314;2022-11-20T03:43:50;23.27;;;3.58;;
29934;SDS011;19905;53.370;-6.314;2022-11-20T03:46:20;21.20;;;3.63;;
29934;SDS011;19905;53.370;-6.314;2022-11-20T03:48:49;18.38;;;3.55;;
29934;SDS011;19905;53.370;-6.314;2022-11-20T03:51:18;20.00;;;3.70;;
29934;SDS011;19905;53.370;-6.314;2022-11-20T03:53:48;23.30;;;3.83;;
29934;SDS011;19905;53.370;-6.314;2022-11-20T03:56:20;29.45;;;3.78;;
29934;SDS011;19905;53.370;-6.314;2022-11-20T03:58:53;16.50;;;3.28;;
29934;SDS011;19905;53.370;-6.314;2022-11-20T04:01:22;22.35;;;3.92;;
29934;SDS011;19905;53.370;-6.314;2022-11-20T04:03:53;24.85;;;3.88;;
29934;SDS011;19905;53.370;-6.314;2022-11-20T04:06:23;24.25;;;3.55;;
29934;SDS011;19905;53.370;-6.314;2022-11-20T04:08:53;22.48;;;3.80;;
29934;SDS011;19905;53.370;-6.314;2022-11-20T04:11:23;24.40;;;4.15;;
29934;SDS011;19905;53.370;-6.314;2022-11-20T04:13:55;23.67;;;3.53;;
29934;SDS011;19905;53.370;-6.314;2022-11-20T04:16:25;26.50;;;4.10;;
29934;SDS011;19905;53.370;-6.314;2022-11-20T04:18:57;19.33;;;3.08;;
29934;SDS011;19905;53.370;-6.314;2022-11-20T04:21:27;21.88;;;3.30;;
29934;SDS011;19905;53.370;-6.314;2022-11-20T04:23:57;23.60;;;3.10;;
29934;SDS011;19905;53.370;-6.314;2022-11-20T04:26:27;29.17;;;4.55;;
29934;SDS011;19905;53.370;-6.314;2022-11-20T04:28:59;19.73;;;3.60;;
29934;SDS011;19905;53.370;-6.314;2022-11-20T04:31:30;24.30;;;3.85;;
29934;SDS011;19905;53.370;-6.314;2022-11-20T04:34:00;22.27;;;3.58;;
29934;SDS011;19905;53.370;-6.314;2022-11-20T04:36:30;30.42;;;3.63;;
29934;SDS011;19905;53.370;-6.314;2022-11-20T04:39:00;31.85;;;3.80;;
29934;SDS011;19905;53.370;-6.314;2022-11-20T04:41:31;25.15;;;4.07;;
29934;SDS011;19905;53.370;-6.314;2022-11-20T04:44:03;20.65;;;3.72;;
29934;SDS011;19905;53.370;-6.314;2022-11-20T04:46:34;33.35;;;4.35;;
29934;SDS011;19905;53.370;-6.314;2022-11-20T04:49:04;27.45;;;4.05;;
29934;SDS011;19905;53.370;-6.314;2022-11-20T04:51:34;24.63;;;4.18;;
29934;SDS011;19905;53.370;-6.314;2022-11-20T04:54:03;41.92;;;4.68;;
29934;SDS011;19905;53.370;-6.314;2022-11-20T04:56:32;32.60;;;4.15;;
29934;SDS011;19905;53.370;-6.314;2022-11-20T04:59:03;30.83;;;5.07;;
29934;SDS011;19905;53.370;-6.314;2022-11-20T05:01:31;32.67;;;4.15;;
29934;SDS011;19905;53.370;-6.314;2022-11-20T05:04:00;27.00;;;3.45;;
29934;SDS011;19905;53.370;-6.314;2022-11-20T05:06:28;35.03;;;4.50;;
29934;SDS011;19905;53.370;-6.314;2022-11-20T05:08:57;34.03;;;4.60;;
29934;SDS011;19905;53.370;-6.314;2022-11-20T05:11:26;34.38;;;4.40;;
29934;SDS011;19905;53.370;-6.314;2022-11-20T05:13:57;22.65;;;3.65;;
29934;SDS011;19905;53.370;-6.314;2022-11-20T05:16:28;27.65;;;4.07;;
29934;SDS011;19905;53.370;-6.314;2022-11-20T05:18:57;26.67;;;3.42;;
29934;SDS011;19905;53.370;-6.314;2022-11-20T05:21:25;28.48;;;3.63;;
29934;SDS011;19905;53.370;-6.314;2022-11-20T05:23:54;27.10;;;4.10;;
29934;SDS011;19905;53.370;-6.314;2022-11-20T05:26:23;30.90;;;4.32;;
29934;SDS011;19905;53.370;-6.314;2022-11-20T05:28:53;27.52;;;4.53;;
29934;SDS011;19905;53.370;-6.314;2022-11-20T05:31:22;25.83;;;3.88;;
29934;SDS011;19905;53.370;-6.314;2022-11-20T05:33:55;29.98;;;4.13;;
29934;SDS011;19905;53.370;-6.314;2022-11-20T05:36:25;26.20;;;3.83;;
29934;SDS011;19905;53.370;-6.314;2022-11-20T05:38:54;33.63;;;4.05;;
29934;SDS011;19905;53.370;-6.314;2022-11-20T05:41:28;22.90;;;3.97;;
29934;SDS011;19905;53.370;-6.314;2022-11-20T05:43:57;20.48;;;3.60;;
29934;SDS011;19905;53.370;-6.314;2022-11-20T05:46:26;22.40;;;3.65;;
29934;SDS011;19905;53.370;-6.314;2022-11-20T05:48:56;19.38;;;3.38;;
29934;SDS011;19905;53.370;-6.314;2022-11-20T05:51:25;26.27;;;3.85;;
29934;SDS011;19905;53.370;-6.314;2022-11-20T05:53:55;18.23;;;3.25;;
29934;SDS011;19905;53.370;-6.314;2022-11-20T05:56:25;22.75;;;3.78;;
29934;SDS011;19905;53.370;-6.314;2022-11-20T05:58:55;25.50;;;3.75;;
29934;SDS011;19905;53.370;-6.314;2022-11-20T06:01:25;25.73;;;3.00;;
29934;SDS011;19905;53.370;-6.314;2022-11-20T06:03:57;12.82;;;2.67;;
29934;SDS011;19905;53.370;-6.314;2022-11-20T06:06:26;19.45;;;3.10;;
29934;SDS011;19905;53.370;-6.314;2022-11-20T06:08:54;16.73;;;2.92;;
29934;SDS011;19905;53.370;-6.314;2022-11-20T06:11:25;17.55;;;3.60;;
29934;SDS011;19905;53.370;-6.314;2022-11-20T06:13:54;19.50;;;2.75;;
29934;SDS011;19905;53.370;-6.314;2022-11-20T06:16:22;17.33;;;2.80;;
29934;SDS011;19905;53.370;-6.314;2022-11-20T06:18:51;20.02;;;2.85;;
29934;SDS011;19905;53.370;-6.314;2022-11-20T06:21:21;26.83;;;3.03;;
29934;SDS011;19905;53.370;-6.314;2022-11-20T06:23:51;20.75;;;2.95;;
29934;SDS011;19905;53.370;-6.314;2022-11-20T06:26:21;19.35;;;3.05;;
29934;SDS011;19905;53.370;-6.314;2022-11-20T06:28:52;21.23;;;3.13;;
29934;SDS011;19905;53.370;-6.314;2022-11-20T06:31:21;19.88;;;2.72;;
29934;SDS011;19905;53.370;-6.314;2022-11-20T06:33:52;17.48;;;3.17;;
29934;SDS011;19905;53.370;-6.314;2022-11-20T06:36:22;20.95;;;2.90;;
29934;SDS011;19905;53.370;-6.314;2022-11-20T06:38:51;21.27;;;3.10;;
29934;SDS011;19905;53.370;-6.314;2022-11-20T06:41:20;16.40;;;2.60;;
29934;SDS011;19905;53.370;-6.314;2022-11-20T06:43:50;17.77;;;2.95;;
29934;SDS011;19905;53.370;-6.314;2022-11-20T06:46:19;18.60;;;3.13;;
29934;SDS011;19905;53.370;-6.314;2022-11-20T06:48:49;20.50;;;2.75;;
29934;SDS011;19905;53.370;-6.314;2022-11-20T06:51:18;20.27;;;2.90;;
29934;SDS011;19905;53.370;-6.314;2022-11-20T06:53:49;20.35;;;2.70;;
29934;SDS011;19905;53.370;-6.314;2022-11-20T06:56:18;22.52;;;3.05;;
29934;SDS011;19905;53.370;-6.314;2022-11-20T06:58:47;22.23;;;3.42;;
29934;SDS011;19905;53.370;-6.314;2022-11-20T07:01:15;19.95;;;3.10;;
29934;SDS011;19905;53.370;-6.314;2022-11-20T07:03:44;18.42;;;3.05;;
29934;SDS011;19905;53.370;-6.314;2022-11-20T07:06:19;20.30;;;2.95;;
29934;SDS011;19905;53.370;-6.314;2022-11-20T07:08:51;16.42;;;2.67;;
29934;SDS011;19905;53.370;-6.314;2022-11-20T07:11:20;18.50;;;2.83;;
29934;SDS011;19905;53.370;-6.314;2022-11-20T07:13:49;20.95;;;3.08;;
29934;SDS011;19905;53.370;-6.314;2022-11-20T07:16:17;18.70;;;2.50;;
29934;SDS011;19905;53.370;-6.314;2022-11-20T07:18:46;27.15;;;3.20;;
29934;SDS011;19905;53.370;-6.314;2022-11-20T07:21:17;22.85;;;2.97;;
29934;SDS011;19905;53.370;-6.314;2022-11-20T07:23:45;25.30;;;3.42;;
29934;SDS011;19905;53.370;-6.314;2022-11-20T07:26:16;21.60;;;3.50;;
29934;SDS011;19905;53.370;-6.314;2022-11-20T07:28:46;20.83;;;3.17;;
29934;SDS011;19905;53.370;-6.314;2022-11-20T07:31:15;21.77;;;2.92;;
29934;SDS011;19905;53.370;-6.314;2022-11-20T07:33:48;27.65;;;3.17;;
29934;SDS011;19905;53.370;-6.314;2022-11-20T07:36:17;20.52;;;3.45;;
29934;SDS011;19905;53.370;-6.314;2022-11-20T07:38:45;21.90;;;2.97;;
29934;SDS011;19905;53.370;-6.314;2022-11-20T07:41:16;24.30;;;3.03;;
29934;SDS011;19905;53.370;-6.314;2022-11-20T07:43:44;25.73;;;3.42;;
29934;SDS011;19905;53.370;-6.314;2022-11-20T07:46:13;24.75;;;3.47;;
29934;SDS011;19905;53.370;-6.314;2022-11-20T07:48:43;16.38;;;3.55;;
29934;SDS011;19905;53.370;-6.314;2022-11-20T07:51:11;18.50;;;2.85;;
29934;SDS011;19905;53.370;-6.314;2022-11-20T07:53:40;21.67;;;3.45;;
29934;SDS011;19905;53.370;-6.314;2022-11-20T07:56:08;27.45;;;3.70;;
29934;SDS011;19905;53.370;-6.314;2022-11-20T07:58:39;27.45;;;3.30;;
29934;SDS011;19905;53.370;-6.314;2022-11-20T08:01:08;25.55;;;3.55;;
29934;SDS011;19905;53.370;-6.314;2022-11-20T08:03:36;30.92;;;3.90;;
29934;SDS011;19905;53.370;-6.314;2022-11-20T08:06:06;24.58;;;4.00;;
29934;SDS011;19905;53.370;-6.314;2022-11-20T08:08:35;26.35;;;3.88;;
29934;SDS011;19905;53.370;-6.314;2022-11-20T08:11:08;22.20;;;4.35;;
29934;SDS011;19905;53.370;-6.314;2022-11-20T08:13:55;26.35;;;3.80;;
29934;SDS011;19905;53.370;-6.314;2022-11-20T08:16:39;19.48;;;3.30;;
29934;SDS011;19905;53.370;-6.314;2022-11-20T08:19:09;23.77;;;4.38;;
29934;SDS011;19905;53.370;-6.314;2022-11-20T08:21:37;21.88;;;3.33;;
29934;SDS011;19905;53.370;-6.314;2022-11-20T08:24:09;26.35;;;3.58;;
29934;SDS011;19905;53.370;-6.314;2022-11-20T08:26:38;27.10;;;3.22;;
29934;SDS011;19905;53.370;-6.314;2022-11-20T08:29:09;21.95;;;3.50;;
29934;SDS011;19905;53.370;-6.314;2022-11-20T08:31:37;27.70;;;3.83;;
29934;SDS011;19905;53.370;-6.314;2022-11-20T08:34:06;22.55;;;2.83;;
29934;SDS011;19905;53.370;-6.314;2022-11-20T08:36:38;17.73;;;3.00;;
29934;SDS011;19905;53.370;-6.314;2022-11-20T08:39:06;22.75;;;3.97;;
29934;SDS011;19905;53.370;-6.314;2022-11-20T08:41:35;23.00;;;3.08;;
29934;SDS011;19905;53.370;-6.314;2022-11-20T08:44:05;22.80;;;3.15;;
29934;SDS011;19905;53.370;-6.314;2022-11-20T08:46:37;23.10;;;3.20;;
29934;SDS011;19905;53.370;-6.314;2022-11-20T08:49:08;20.15;;;3.00;;
29934;SDS011;19905;53.370;-6.314;2022-11-20T08:51:39;20.13;;;3.08;;
29934;SDS011;19905;53.370;-6.314;2022-11-20T08:54:08;18.70;;;2.90;;
29934;SDS011;19905;53.370;-6.314;2022-11-20T08:56:36;20.10;;;3.75;;
29934;SDS011;19905;53.370;-6.314;2022-11-20T08:59:05;14.75;;;2.85;;
29934;SDS011;19905;53.370;-6.314;2022-11-20T09:01:55;22.42;;;3.47;;
29934;SDS011;19905;53.370;-6.314;2022-11-20T09:04:23;21.00;;;3.00;;
29934;SDS011;19905;53.370;-6.314;2022-11-20T09:06:53;19.63;;;2.97;;
29934;SDS011;19905;53.370;-6.314;2022-11-20T09:09:21;16.98;;;2.47;;
29934;SDS011;19905;53.370;-6.314;2022-11-20T09:11:50;16.75;;;2.72;;
29934;SDS011;19905;53.370;-6.314;2022-11-20T09:14:18;14.95;;;2.55;;
29934;SDS011;19905;53.370;-6.314;2022-11-20T09:16:48;15.00;;;2.67;;
29934;SDS011;19905;53.370;-6.314;2022-11-20T09:19:18;19.00;;;2.60;;
29934;SDS011;19905;53.370;-6.314;2022-11-20T09:22:00;10.57;;;2.30;;
29934;SDS011;19905;53.370;-6.314;2022-11-20T09:24:29;15.05;;;2.70;;
29934;SDS011;19905;53.370;-6.314;2022-11-20T09:27:01;19.52;;;2.53;;
29934;SDS011;19905;53.370;-6.314;2022-11-20T09:29:30;17.98;;;2.72;;
29934;SDS011;19905;53.370;-6.314;2022-11-20T09:31:59;15.50;;;2.30;;
29934;SDS011;19905;53.370;-6.314;2022-11-20T09:34:29;17.40;;;2.90;;
29934;SDS011;19905;53.370;-6.314;2022-11-20T09:37:00;12.15;;;2.05;;
29934;SDS011;19905;53.370;-6.314;2022-11-20T09:39:33;11.85;;;2.05;;
29934;SDS011;19905;53.370;-6.314;2022-11-20T09:42:13;11.15;;;2.33;;
29934;SDS011;19905;53.370;-6.314;2022-11-20T09:45:04;13.73;;;2.60;;
29934;SDS011;19905;53.370;-6.314;2022-11-20T09:47:43;14.18;;;2.25;;
29934;SDS011;19905;53.370;-6.314;2022-11-20T09:50:30;10.35;;;2.17;;
29934;SDS011;19905;53.370;-6.314;2022-11-20T09:53:08;11.00;;;2.15;;
29934;SDS011;19905;53.370;-6.314;2022-11-20T09:55:41;8.60;;;2.10;;
29934;SDS011;19905;53.370;-6.314;2022-11-20T09:58:13;14.27;;;2.17;;
29934;SDS011;19905;53.370;-6.314;2022-11-20T10:00:49;12.98;;;2.53;;
29934;SDS011;19905;53.370;-6.314;2022-11-20T10:03:26;10.95;;;2.28;;
29934;SDS011;19905;53.370;-6.314;2022-11-20T10:06:07;14.98;;;3.00;;
29934;SDS011;19905;53.370;-6.314;2022-11-20T10:08:41;16.00;;;2.65;;
29934;SDS011;19905;53.370;-6.314;2022-11-20T10:11:16;13.00;;;2.15;;
29934;SDS011;19905;53.370;-6.314;2022-11-20T10:13:52;12.23;;;2.72;;
29934;SDS011;19905;53.370;-6.314;2022-11-20T10:16:33;9.68;;;1.90;;
29934;SDS011;19905;53.370;-6.314;2022-11-20T10:19:10;10.60;;;1.77;;
29934;SDS011;19905;53.370;-6.314;2022-11-20T10:21:55;10.68;;;2.00;;
29934;SDS011;19905;53.370;-6.314;2022-11-20T10:24:38;6.55;;;1.33;;
29934;SDS011;19905;53.370;-6.314;2022-11-20T10:30:14;12.15;;;1.77;;
29934;SDS011;19905;53.370;-6.314;2022-11-20T10:32:47;7.07;;;1.60;;
29934;SDS011;19905;53.370;-6.314;2022-11-20T10:35:20;12.13;;;2.08;;
29934;SDS011;19905;53.370;-6.314;2022-11-20T10:37:55;7.60;;;1.90;;
29934;SDS011;19905;53.370;-6.314;2022-11-20T10:40:29;11.65;;;2.00;;
29934;SDS011;19905;53.370;-6.314;2022-11-20T10:43:03;8.80;;;2.00;;
29934;SDS011;19905;53.370;-6.314;2022-11-20T10:45:46;7.45;;;1.52;;
29934;SDS011;19905;53.370;-6.314;2022-11-20T10:48:20;7.53;;;2.08;;
29934;SDS011;19905;53.370;-6.314;2022-11-20T10:50:55;7.30;;;1.60;;
29934;SDS011;19905;53.370;-6.314;2022-11-20T10:53:39;6.60;;;1.80;;
29934;SDS011;19905;53.370;-6.314;2022-11-20T10:56:17;9.25;;;1.30;;
29934;SDS011;19905;53.370;-6.314;2022-11-20T11:01:54;4.57;;;1.38;;
29934;SDS011;19905;53.370;-6.314;2022-11-20T11:04:28;5.20;;;1.50;;
29934;SDS011;19905;53.370;-6.314;2022-11-20T11:07:06;5.07;;;1.30;;
29934;SDS011;19905;53.370;-6.314;2022-11-20T11:09:43;3.38;;;1.30;;
29934;SDS011;19905;53.370;-6.314;2022-11-20T11:12:12;3.08;;;0.90;;
29934;SDS011;19905;53.370;-6.314;2022-11-20T11:14:42;2.25;;;0.80;;
29934;SDS011;19905;53.370;-6.314;2022-11-20T11:17:22;4.80;;;1.00;;
29934;SDS011;19905;53.370;-6.314;2022-11-20T11:19:58;3.00;;;1.00;;
29934;SDS011;19905;53.370;-6.314;2022-11-20T11:22:43;2.53;;;0.93;;
29934;SDS011;19905;53.370;-6.314;2022-11-20T11:25:22;2.95;;;1.08;;
29934;SDS011;19905;53.370;-6.314;2022-11-20T11:27:56;3.78;;;1.15;;
29934;SDS011;19905;53.370;-6.314;2022-11-20T11:30:27;2.63;;;1.10;;
29934;SDS011;19905;53.370;-6.314;2022-11-20T11:33:05;1.70;;;1.08;;
29934;SDS011;19905;53.370;-6.314;2022-11-20T11:35:44;1.83;;;1.00;;
29934;SDS011;19905;53.370;-6.314;2022-11-20T11:38:19;2.47;;;1.00;;
29934;SDS011;19905;53.370;-6.314;2022-11-20T11:40:52;2.15;;;0.70;;
29934;SDS011;19905;53.370;-6.314;2022-11-20T11:43:24;1.50;;;0.73;;
29934;SDS011;19905;53.370;-6.314;2022-11-20T11:49:00;3.90;;;0.90;;
29934;SDS011;19905;53.370;-6.314;2022-11-20T11:51:41;3.85;;;0.70;;
29934;SDS011;19905;53.370;-6.314;2022-11-20T11:54:22;2.60;;;0.80;;
29934;SDS011;19905;53.370;-6.314;2022-11-20T11:56:56;1.50;;;0.80;;
29934;SDS011;19905;53.370;-6.314;2022-11-20T11:59:33;1.20;;;0.70;;
29934;SDS011;19905;53.370;-6.314;2022-11-20T20:41:43;17.52;;;7.45;;
29934;SDS011;19905;53.370;-6.314;2022-11-20T20:44:17;22.77;;;7.20;;
29934;SDS011;19905;53.370;-6.314;2022-11-20T20:47:04;23.92;;;7.72;;
29934;SDS011;19905;53.370;-6.314;2022-11-20T20:49:40;21.83;;;8.13;;
29934;SDS011;19905;53.370;-6.314;2022-11-20T20:52:09;21.08;;;7.60;;
29934;SDS011;19905;53.370;-6.314;2022-11-20T20:54:37;26.30;;;7.05;;
29934;SDS011;19905;53.370;-6.314;2022-11-20T20:57:09;23.15;;;7.05;;
29934;SDS011;19905;53.370;-6.314;2022-11-20T20:59:39;24.85;;;7.20;;
29934;SDS011;19905;53.370;-6.314;2022-11-20T21:02:08;22.10;;;7.65;;
29934;SDS011;19905;53.370;-6.314;2022-11-20T21:04:38;24.73;;;8.45;;
29934;SDS011;19905;53.370;-6.314;2022-11-20T21:07:06;22.15;;;8.98;;
29934;SDS011;19905;53.370;-6.314;2022-11-20T21:09:36;28.33;;;9.93;;
29934;SDS011;19905;53.370;-6.314;2022-11-20T21:12:07;21.42;;;9.40;;
29934;SDS011;19905;53.370;-6.314;2022-11-20T21:14:37;23.75;;;9.98;;
29934;SDS011;19905;53.370;-6.314;2022-11-20T21:17:06;26.15;;;10.25;;
29934;SDS011;19905;53.370;-6.314;2022-11-20T21:19:40;27.33;;;9.80;;
29934;SDS011;19905;53.370;-6.314;2022-11-20T21:22:09;32.85;;;11.38;;
29934;SDS011;19905;53.370;-6.314;2022-11-20T21:24:37;28.10;;;11.02;;
29934;SDS011;19905;53.370;-6.314;2022-11-20T21:27:06;35.00;;;13.63;;
29934;SDS011;19905;53.370;-6.314;2022-11-20T21:29:35;27.40;;;10.90;;
29934;SDS011;19905;53.370;-6.314;2022-11-20T21:32:05;28.55;;;10.63;;
29934;SDS011;19905;53.370;-6.314;2022-11-20T21:34:33;24.08;;;10.20;;
29934;SDS011;19905;53.370;-6.314;2022-11-20T21:37:04;37.90;;;12.63;;
29934;SDS011;19905;53.370;-6.314;2022-11-20T21:39:36;35.25;;;14.57;;
29934;SDS011;19905;53.370;-6.314;2022-11-20T21:42:16;33.75;;;12.88;;
29934;SDS011;19905;53.370;-6.314;2022-11-20T21:44:45;36.25;;;13.65;;
29934;SDS011;19905;53.370;-6.314;2022-11-20T21:47:15;34.97;;;14.38;;
29934;SDS011;19905;53.370;-6.314;2022-11-20T21:49:44;38.78;;;15.43;;
29934;SDS011;19905;53.370;-6.314;2022-11-20T21:52:13;45.15;;;18.85;;
29934;SDS011;19905;53.370;-6.314;2022-11-20T21:54:42;39.88;;;16.08;;
29934;SDS011;19905;53.370;-6.314;2022-11-20T21:57:11;40.58;;;17.38;;
29934;SDS011;19905;53.370;-6.314;2022-11-20T21:59:41;44.42;;;18.52;;
29934;SDS011;19905;53.370;-6.314;2022-11-20T22:02:12;45.50;;;18.33;;
29934;SDS011;19905;53.370;-6.314;2022-11-20T22:04:44;46.75;;;17.27;;
29934;SDS011;19905;53.370;-6.314;2022-11-20T22:07:13;42.58;;;17.15;;
29934;SDS011;19905;53.370;-6.314;2022-11-20T22:09:42;43.88;;;16.80;;
29934;SDS011;19905;53.370;-6.314;2022-11-20T22:12:11;38.92;;;14.95;;
29934;SDS011;19905;53.370;-6.314;2022-11-20T22:14:40;39.08;;;15.13;;
29934;SDS011;19905;53.370;-6.314;2022-11-20T22:17:10;44.80;;;16.33;;
29934;SDS011;19905;53.370;-6.314;2022-11-20T22:19:42;44.47;;;17.25;;
29934;SDS011;19905;53.370;-6.314;2022-11-20T22:22:11;50.78;;;18.50;;
29934;SDS011;19905;53.370;-6.314;2022-11-20T22:24:47;42.85;;;17.15;;
29934;SDS011;19905;53.370;-6.314;2022-11-20T22:27:16;42.42;;;15.50;;
29934;SDS011;19905;53.370;-6.314;2022-11-20T22:29:48;33.22;;;11.65;;
29934;SDS011;19905;53.370;-6.314;2022-11-20T22:32:24;32.40;;;11.07;;
29934;SDS011;19905;53.370;-6.314;2022-11-20T22:34:58;26.15;;;8.48;;
29934;SDS011;19905;53.370;-6.314;2022-11-20T22:37:27;28.33;;;8.82;;
29934;SDS011;19905;53.370;-6.314;2022-11-20T22:39:55;28.33;;;9.15;;
29934;SDS011;19905;53.370;-6.314;2022-11-20T22:42:23;35.92;;;9.60;;
29934;SDS011;19905;53.370;-6.314;2022-11-20T22:44:52;28.90;;;10.38;;
29934;SDS011;19905;53.370;-6.314;2022-11-20T22:47:20;34.60;;;9.88;;
29934;SDS011;19905;53.370;-6.314;2022-11-20T22:49:49;32.63;;;9.70;;
29934;SDS011;19905;53.370;-6.314;2022-11-20T22:52:19;30.33;;;10.15;;
29934;SDS011;19905;53.370;-6.314;2022-11-20T22:54:47;27.58;;;10.13;;
29934;SDS011;19905;53.370;-6.314;2022-11-20T22:57:15;31.55;;;9.02;;
29934;SDS011;19905;53.370;-6.314;2022-11-20T22:59:44;28.75;;;9.38;;
29934;SDS011;19905;53.370;-6.314;2022-11-20T23:02:12;27.88;;;9.07;;
29934;SDS011;19905;53.370;-6.314;2022-11-20T23:04:41;27.40;;;9.60;;
29934;SDS011;19905;53.370;-6.314;2022-11-20T23:07:10;32.10;;;9.57;;
29934;SDS011;19905;53.370;-6.314;2022-11-20T23:09:40;27.75;;;8.00;;
29934;SDS011;19905;53.370;-6.314;2022-11-20T23:12:08;30.48;;;9.35;;
29934;SDS011;19905;53.370;-6.314;2022-11-20T23:14:37;24.42;;;9.10;;
29934;SDS011;19905;53.370;-6.314;2022-11-20T23:17:05;29.08;;;9.50;;
29934;SDS011;19905;53.370;-6.314;2022-11-20T23:19:34;29.88;;;9.02;;
29934;SDS011;19905;53.370;-6.314;2022-11-20T23:22:03;22.65;;;7.65;;
29934;SDS011;19905;53.370;-6.314;2022-11-20T23:24:31;25.75;;;8.63;;
29934;SDS011;19905;53.370;-6.314;2022-11-20T23:27:01;29.85;;;8.60;;
29934;SDS011;19905;53.370;-6.314;2022-11-20T23:29:29;25.48;;;7.28;;
29934;SDS011;19905;53.370;-6.314;2022-11-20T23:31:58;25.55;;;6.50;;
29934;SDS011;19905;53.370;-6.314;2022-11-20T23:34:27;26.70;;;5.70;;
29934;SDS011;19905;53.370;-6.314;2022-11-20T23:36:55;30.55;;;5.97;;